Terminal Aerodrome Forecast
Issued by NWS

Current Version | Previous Version | Text Only | Print | Product List | Glossary On
Versions: 1 2 3 4 5 6 7 8 9 10 11 12 13 14 15 16 17 18 19 20 21 22 23 24 25 26 27 28 29 30 31 32 33
259
FTUS45 KREV 220539
TAFTVL
TAF
KTVL 220539Z 2206/2306 20010KT 1SM -SN BR OVC010
     FM220900 19009KT 5SM -SHSN BR BKN015 OVC030
     FM221200 19008KT P6SM VCFG SCT002 BKN035
     FM221700 19011G18KT P6SM SCT040
     FM230200 20008KT P6SM VCSH BKN035=

USA.gov is the U.S. government's official web portal to all federal, state and local government web resources and services.